sensor_id;sensor_type;location;lat;lon;timestamp;pressure;altitude;pressure_sealevel;temperature;humidity
31337;BME280;22846;42.654;23.314;2023-05-22T00:01:14;94297.31;;;24.46;55.56
31337;BME280;22846;42.654;23.314;2023-05-22T00:03:44;94293.84;;;24.45;55.47
31337;BME280;22846;42.654;23.314;2023-05-22T00:06:09;94291.84;;;24.46;55.46
31337;BME280;22846;42.654;23.314;2023-05-22T00:08:36;94292.63;;;24.46;55.77
31337;BME280;22846;42.654;23.314;2023-05-22T00:11:02;94290.38;;;24.45;55.87
31337;BME280;22846;42.654;23.314;2023-05-22T00:13:27;94286.84;;;24.44;55.91
31337;BME280;22846;42.654;23.314;2023-05-22T00:15:53;94288.84;;;24.44;55.76
31337;BME280;22846;42.654;23.314;2023-05-22T00:18:18;94278.31;;;24.42;55.76
31337;BME280;22846;42.654;23.314;2023-05-22T00:20:44;94285.66;;;24.45;55.49
31337;BME280;22846;42.654;23.314;2023-05-22T00:23:11;94280.63;;;24.44;55.62
31337;BME280;22846;42.654;23.314;2023-05-22T00:25:36;94282.59;;;24.43;55.90
31337;BME280;22846;42.654;23.314;2023-05-22T00:28:03;94293.50;;;24.43;55.49
31337;BME280;22846;42.654;23.314;2023-05-22T00:30:29;94290.00;;;24.43;55.91
31337;BME280;22846;42.654;23.314;2023-05-22T00:32:55;94294.69;;;24.42;55.60
31337;BME280;22846;42.654;23.314;2023-05-22T00:35:21;94286.50;;;24.42;55.58
31337;BME280;22846;42.654;23.314;2023-05-22T00:37:46;94291.97;;;24.42;55.85
31337;BME280;22846;42.654;23.314;2023-05-22T00:40:13;94287.69;;;24.41;55.84
31337;BME280;22846;42.654;23.314;2023-05-22T00:42:42;94287.09;;;24.37;55.37
31337;BME280;22846;42.654;23.314;2023-05-22T00:45:09;94293.16;;;24.41;55.44
31337;BME280;22846;42.654;23.314;2023-05-22T00:47:35;94290.44;;;24.41;55.89
31337;BME280;22846;42.654;23.314;2023-05-22T00:50:01;94293.94;;;24.42;55.52
31337;BME280;22846;42.654;23.314;2023-05-22T00:52:27;94293.16;;;24.41;55.74
31337;BME280;22846;42.654;23.314;2023-05-22T00:54:53;94291.66;;;24.40;55.83
31337;BME280;22846;42.654;23.314;2023-05-22T00:57:19;94290.44;;;24.41;55.64
31337;BME280;22846;42.654;23.314;2023-05-22T00:59:46;94285.09;;;24.38;55.52
31337;BME280;22846;42.654;23.314;2023-05-22T01:02:13;94283.91;;;24.39;55.71
31337;BME280;22846;42.654;23.314;2023-05-22T01:04:43;94290.13;;;24.39;55.46
31337;BME280;22846;42.654;23.314;2023-05-22T01:07:15;94291.66;;;24.40;55.91
31337;BME280;22846;42.654;23.314;2023-05-22T01:09:42;94282.69;;;24.40;55.76
31337;BME280;22846;42.654;23.314;2023-05-22T01:12:33;94285.44;;;24.40;55.67
31337;BME280;22846;42.654;23.314;2023-05-22T01:15:15;94288.94;;;24.40;55.53
31337;BME280;22846;42.654;23.314;2023-05-22T01:17:50;94300.28;;;24.39;55.61
31337;BME280;22846;42.654;23.314;2023-05-22T01:20:35;94287.84;;;24.38;55.44
31337;BME280;22846;42.654;23.314;2023-05-22T01:29:11;94287.53;;;24.36;55.82
31337;BME280;22846;42.654;23.314;2023-05-22T01:31:40;94284.03;;;24.35;55.35
31337;BME280;22846;42.654;23.314;2023-05-22T01:34:10;94284.03;;;24.35;55.76
31337;BME280;22846;42.654;23.314;2023-05-22T01:36:37;94275.97;;;24.32;55.76
31337;BME280;22846;42.654;23.314;2023-05-22T01:39:03;94277.03;;;24.34;55.50
31337;BME280;22846;42.654;23.314;2023-05-22T01:41:33;94276.75;;;24.32;55.63
31337;BME280;22846;42.654;23.314;2023-05-22T01:44:00;94267.63;;;24.35;55.30
31337;BME280;22846;42.654;23.314;2023-05-22T01:46:29;94272.34;;;24.35;55.76
31337;BME280;22846;42.654;23.314;2023-05-22T01:48:55;94276.28;;;24.34;55.38
31337;BME280;22846;42.654;23.314;2023-05-22T01:51:46;94271.56;;;24.34;55.94
31337;BME280;22846;42.654;23.314;2023-05-22T01:54:23;94274.31;;;24.34;55.23
31337;BME280;22846;42.654;23.314;2023-05-22T01:57:11;94278.25;;;24.33;55.73
31337;BME280;22846;42.654;23.314;2023-05-22T01:59:45;94272.78;;;24.33;55.84
31337;BME280;22846;42.654;23.314;2023-05-22T02:02:18;94277.50;;;24.33;55.43
31337;BME280;22846;42.654;23.314;2023-05-22T02:04:57;94274.00;;;24.32;55.69
31337;BME280;22846;42.654;23.314;2023-05-22T02:07:24;94270.94;;;24.30;55.74
31337;BME280;22846;42.654;23.314;2023-05-22T02:09:51;94265.03;;;24.32;55.52
31337;BME280;22846;42.654;23.314;2023-05-22T02:12:18;94277.50;;;24.33;55.70
31337;BME280;22846;42.654;23.314;2023-05-22T02:14:44;94268.56;;;24.32;55.80
31337;BME280;22846;42.654;23.314;2023-05-22T02:17:09;94274.75;;;24.33;55.82
31337;BME280;22846;42.654;23.314;2023-05-22T02:19:35;94281.44;;;24.32;55.63
31337;BME280;22846;42.654;23.314;2023-05-22T02:22:01;94272.91;;;24.30;55.86
31337;BME280;22846;42.654;23.314;2023-05-22T02:24:28;94273.22;;;24.32;55.75
31337;BME280;22846;42.654;23.314;2023-05-22T02:26:54;94267.03;;;24.31;55.68
31337;BME280;22846;42.654;23.314;2023-05-22T02:29:19;94277.94;;;24.31;55.27
31337;BME280;22846;42.654;23.314;2023-05-22T02:31:44;94277.16;;;24.31;55.77
31337;BME280;22846;42.654;23.314;2023-05-22T02:34:10;94283.41;;;24.31;55.96
31337;BME280;22846;42.654;23.314;2023-05-22T02:36:35;94273.69;;;24.30;55.17
31337;BME280;22846;42.654;23.314;2023-05-22T02:39:01;94267.03;;;24.31;55.82
31337;BME280;22846;42.654;23.314;2023-05-22T02:41:27;94277.94;;;24.31;55.63
31337;BME280;22846;42.654;23.314;2023-05-22T02:43:52;94267.44;;;24.30;55.59
31337;BME280;22846;42.654;23.314;2023-05-22T02:46:18;94270.94;;;24.30;55.38
31337;BME280;22846;42.654;23.314;2023-05-22T02:48:43;94268.97;;;24.31;55.80
31337;BME280;22846;42.654;23.314;2023-05-22T02:51:09;94261.25;;;24.29;55.83
31337;BME280;22846;42.654;23.314;2023-05-22T02:53:35;94270.94;;;24.30;55.77
31337;BME280;22846;42.654;23.314;2023-05-22T02:56:08;94257.72;;;24.29;55.59
31337;BME280;22846;42.654;23.314;2023-05-22T02:58:35;94268.22;;;24.30;55.73
31337;BME280;22846;42.654;23.314;2023-05-22T03:01:00;94262.91;;;24.27;55.66
31337;BME280;22846;42.654;23.314;2023-05-22T03:03:27;94267.44;;;24.30;55.26
31337;BME280;22846;42.654;23.314;2023-05-22T03:05:53;94260.03;;;24.30;55.97
31337;BME280;22846;42.654;23.314;2023-05-22T03:08:22;94265.16;;;24.28;55.29
31337;BME280;22846;42.654;23.314;2023-05-22T03:10:48;94263.63;;;24.27;55.46
31337;BME280;22846;42.654;23.314;2023-05-22T03:13:13;94268.66;;;24.29;55.90
31337;BME280;22846;42.654;23.314;2023-05-22T03:15:39;94267.91;;;24.28;55.55
31337;BME280;22846;42.654;23.314;2023-05-22T03:18:04;94274.88;;;24.29;55.91
31337;BME280;22846;42.654;23.314;2023-05-22T03:20:30;94270.63;;;24.28;55.69
31337;BME280;22846;42.654;23.314;2023-05-22T03:22:56;94277.63;;;24.29;55.65
31337;BME280;22846;42.654;23.314;2023-05-22T03:25:22;94267.91;;;24.28;55.33
31337;BME280;22846;42.654;23.314;2023-05-22T03:27:47;94268.66;;;24.29;55.83
31337;BME280;22846;42.654;23.314;2023-05-22T03:30:14;94278.81;;;24.28;55.68
31337;BME280;22846;42.654;23.314;2023-05-22T03:32:40;94266.38;;;24.27;55.56
31337;BME280;22846;42.654;23.314;2023-05-22T03:35:06;94269.97;;;24.24;56.03
31337;BME280;22846;42.654;23.314;2023-05-22T03:37:31;94269.09;;;24.27;55.79
31337;BME280;22846;42.654;23.314;2023-05-22T03:39:56;94265.63;;;24.27;55.78
31337;BME280;22846;42.654;23.314;2023-05-22T03:42:22;94267.91;;;24.28;55.79
31337;BME280;22846;42.654;23.314;2023-05-22T03:44:47;94273.38;;;24.28;55.79
31337;BME280;22846;42.654;23.314;2023-05-22T03:47:14;94278.06;;;24.28;55.31
31337;BME280;22846;42.654;23.314;2023-05-22T03:49:39;94272.63;;;24.28;55.46
31337;BME280;22846;42.654;23.314;2023-05-22T03:52:05;94269.88;;;24.28;55.81
31337;BME280;22846;42.654;23.314;2023-05-22T03:54:30;94267.16;;;24.28;55.74
31337;BME280;22846;42.654;23.314;2023-05-22T03:56:56;94276.09;;;24.28;55.94
31337;BME280;22846;42.654;23.314;2023-05-22T03:59:21;94277.28;;;24.27;55.29
31337;BME280;22846;42.654;23.314;2023-05-22T04:01:47;94283.53;;;24.28;55.46
31337;BME280;22846;42.654;23.314;2023-05-22T04:04:13;94277.28;;;24.27;55.75
31337;BME280;22846;42.654;23.314;2023-05-22T04:06:38;94270.31;;;24.26;55.72
31337;BME280;22846;42.654;23.314;2023-05-22T04:09:11;94280.03;;;24.27;55.20
31337;BME280;22846;42.654;23.314;2023-05-22T04:11:40;94272.63;;;24.28;55.09
31337;BME280;22846;42.654;23.314;2023-05-22T04:14:06;94274.13;;;24.29;55.08
31337;BME280;22846;42.654;23.314;2023-05-22T04:16:32;94283.41;;;24.31;56.12
31337;BME280;22846;42.654;23.314;2023-05-22T04:18:58;94283.41;;;24.31;55.36
31337;BME280;22846;42.654;23.314;2023-05-22T04:21:26;94283.84;;;24.30;55.14
31337;BME280;22846;42.654;23.314;2023-05-22T04:23:52;94288.88;;;24.31;55.58
31337;BME280;22846;42.654;23.314;2023-05-22T04:26:18;94276.75;;;24.32;56.04
31337;BME280;22846;42.654;23.314;2023-05-22T04:28:45;94286.88;;;24.32;56.22
31337;BME280;22846;42.654;23.314;2023-05-22T04:31:14;94284.94;;;24.32;55.78
31337;BME280;22846;42.654;23.314;2023-05-22T04:33:39;94281.44;;;24.32;55.87
31337;BME280;22846;42.654;23.314;2023-05-22T04:36:05;94291.91;;;24.33;56.37
31337;BME280;22846;42.654;23.314;2023-05-22T04:38:32;94286.44;;;24.33;56.46
31337;BME280;22846;42.654;23.314;2023-05-22T04:41:04;94291.16;;;24.33;56.53
31337;BME280;22846;42.654;23.314;2023-05-22T04:43:32;94298.59;;;24.32;56.44
31337;BME280;22846;42.654;23.314;2023-05-22T04:45:58;94295.09;;;24.32;56.30
31337;BME280;22846;42.654;23.314;2023-05-22T04:48:23;94292.81;;;24.30;56.09
31337;BME280;22846;42.654;23.314;2023-05-22T04:50:49;94294.34;;;24.31;52.54
31337;BME280;22846;42.654;23.314;2023-05-22T04:53:14;94297.06;;;24.31;51.64
31337;BME280;22846;42.654;23.314;2023-05-22T04:55:40;94290.41;;;24.32;51.76
31337;BME280;22846;42.654;23.314;2023-05-22T04:58:06;94289.16;;;24.33;52.62
31337;BME280;22846;42.654;23.314;2023-05-22T05:00:31;94297.69;;;24.35;54.21
31337;BME280;22846;42.654;23.314;2023-05-22T05:02:57;94296.47;;;24.36;54.29
31337;BME280;22846;42.654;23.314;2023-05-22T05:05:24;94301.94;;;24.36;54.63
31337;BME280;22846;42.654;23.314;2023-05-22T05:07:49;94298.00;;;24.37;55.20
31337;BME280;22846;42.654;23.314;2023-05-22T05:10:16;94295.28;;;24.37;54.79
31337;BME280;22846;42.654;23.314;2023-05-22T05:12:41;94293.28;;;24.38;55.15
31337;BME280;22846;42.654;23.314;2023-05-22T05:15:07;94305.00;;;24.38;55.06
31337;BME280;22846;42.654;23.314;2023-05-22T05:17:33;94296.34;;;24.40;54.97
31337;BME280;22846;42.654;23.314;2023-05-22T05:19:58;94291.91;;;24.33;55.11
31337;BME280;22846;42.654;23.314;2023-05-22T05:22:24;94305.63;;;24.42;55.55
31337;BME280;22846;42.654;23.314;2023-05-22T05:24:49;94303.66;;;24.43;55.09
31337;BME280;22846;42.654;23.314;2023-05-22T05:27:14;94302.50;;;24.44;55.15
31337;BME280;22846;42.654;23.314;2023-05-22T05:29:40;94304.03;;;24.45;55.53
31337;BME280;22846;42.654;23.314;2023-05-22T05:32:06;94297.78;;;24.44;55.61
31337;BME280;22846;42.654;23.314;2023-05-22T05:34:31;94302.03;;;24.45;55.73
31337;BME280;22846;42.654;23.314;2023-05-22T05:36:57;94306.28;;;24.46;55.46
31337;BME280;22846;42.654;23.314;2023-05-22T05:39:22;94308.56;;;24.48;55.44
31337;BME280;22846;42.654;23.314;2023-05-22T05:41:47;94297.66;;;24.48;55.81
31337;BME280;22846;42.654;23.314;2023-05-22T05:44:13;94301.91;;;24.49;55.69
31337;BME280;22846;42.654;23.314;2023-05-22T05:46:38;94296.91;;;24.47;55.52
31337;BME280;22846;42.654;23.314;2023-05-22T05:49:07;94310.88;;;24.49;55.63
31337;BME280;22846;42.654;23.314;2023-05-22T05:51:36;94304.97;;;24.51;55.72
31337;BME280;22846;42.654;23.314;2023-05-22T05:54:02;94316.22;;;24.53;55.45
31337;BME280;22846;42.654;23.314;2023-05-22T05:56:28;94309.97;;;24.52;55.44
31337;BME280;22846;42.654;23.314;2023-05-22T05:58:53;94316.50;;;24.55;55.36
31337;BME280;22846;42.654;23.314;2023-05-22T06:01:19;94314.56;;;24.55;55.76
31337;BME280;22846;42.654;23.314;2023-05-22T06:03:47;94312.56;;;24.56;55.78
31337;BME280;22846;42.654;23.314;2023-05-22T06:06:12;94309.41;;;24.57;55.69
31337;BME280;22846;42.654;23.314;2023-05-22T06:08:38;94308.63;;;24.57;55.67
31337;BME280;22846;42.654;23.314;2023-05-22T06:11:03;94308.97;;;24.59;55.36
31337;BME280;22846;42.654;23.314;2023-05-22T06:13:28;94315.16;;;24.59;55.47
31337;BME280;22846;42.654;23.314;2023-05-22T06:15:54;94315.16;;;24.59;55.81
31337;BME280;22846;42.654;23.314;2023-05-22T06:18:19;94310.47;;;24.60;55.46
31337;BME280;22846;42.654;23.314;2023-05-22T06:20:45;94309.28;;;24.61;55.81
31337;BME280;22846;42.654;23.314;2023-05-22T06:23:11;94311.22;;;24.60;55.53
31337;BME280;22846;42.654;23.314;2023-05-22T06:25:36;94305.91;;;24.57;55.58
31337;BME280;22846;42.654;23.314;2023-05-22T06:28:04;94305.34;;;24.62;55.96
31337;BME280;22846;42.654;23.314;2023-05-22T06:30:30;94297.28;;;24.58;55.65
31337;BME280;22846;42.654;23.314;2023-05-22T06:32:55;94315.81;;;24.63;56.10
31337;BME280;22846;42.654;23.314;2023-05-22T06:35:21;94303.38;;;24.62;55.72
31337;BME280;22846;42.654;23.314;2023-05-22T06:37:46;94304.88;;;24.63;55.93
31337;BME280;22846;42.654;23.314;2023-05-22T06:40:12;94309.91;;;24.65;55.95
31337;BME280;22846;42.654;23.314;2023-05-22T06:42:37;94298.22;;;24.64;55.60
31337;BME280;22846;42.654;23.314;2023-05-22T06:45:03;94300.94;;;24.64;55.83
31337;BME280;22846;42.654;23.314;2023-05-22T06:47:29;94302.03;;;24.67;55.58
31337;BME280;22846;42.654;23.314;2023-05-22T06:49:55;94309.03;;;24.68;55.58
31337;BME280;22846;42.654;23.314;2023-05-22T06:52:20;94304.31;;;24.68;55.72
31337;BME280;22846;42.654;23.314;2023-05-22T06:54:46;94305.81;;;24.69;55.68
31337;BME280;22846;42.654;23.314;2023-05-22T06:57:11;94308.13;;;24.71;55.53
31337;BME280;22846;42.654;23.314;2023-05-22T06:59:36;94300.69;;;24.71;55.74
31337;BME280;22846;42.654;23.314;2023-05-22T07:02:02;94308.88;;;24.71;55.63
31337;BME280;22846;42.654;23.314;2023-05-22T07:04:27;94314.66;;;24.73;55.52
31337;BME280;22846;42.654;23.314;2023-05-22T07:06:53;94309.53;;;24.75;55.30
31337;BME280;22846;42.654;23.314;2023-05-22T07:09:18;94307.53;;;24.76;55.33
31337;BME280;22846;42.654;23.314;2023-05-22T07:11:45;94311.03;;;24.76;55.75
31337;BME280;22846;42.654;23.314;2023-05-22T07:14:11;94309.81;;;24.77;55.79
31337;BME280;22846;42.654;23.314;2023-05-22T07:16:39;94305.13;;;24.77;55.55
31337;BME280;22846;42.654;23.314;2023-05-22T07:19:06;94313.34;;;24.77;55.72
31337;BME280;22846;42.654;23.314;2023-05-22T07:21:33;94301.31;;;24.75;55.45
31337;BME280;22846;42.654;23.314;2023-05-22T07:24:00;94308.63;;;24.78;55.77
31337;BME280;22846;42.654;23.314;2023-05-22T07:26:32;94307.41;;;24.79;55.57
31337;BME280;22846;42.654;23.314;2023-05-22T07:28:58;94312.88;;;24.79;55.60
31337;BME280;22846;42.654;23.314;2023-05-22T07:31:23;94301.19;;;24.78;55.70
31337;BME280;22846;42.654;23.314;2023-05-22T07:33:48;94304.69;;;24.79;55.24
31337;BME280;22846;42.654;23.314;2023-05-22T07:36:14;94303.47;;;24.80;55.77
31337;BME280;22846;42.654;23.314;2023-05-22T07:38:40;94308.19;;;24.79;55.44
31337;BME280;22846;42.654;23.314;2023-05-22T07:41:06;94303.47;;;24.80;55.93
31337;BME280;22846;42.654;23.314;2023-05-22T07:43:31;94305.00;;;24.81;55.29
31337;BME280;22846;42.654;23.314;2023-05-22T07:45:57;94302.25;;;24.81;55.75
31337;BME280;22846;42.654;23.314;2023-05-22T07:48:22;94305.75;;;24.81;55.79
31337;BME280;22846;42.654;23.314;2023-05-22T07:50:47;94305.75;;;24.81;55.62
31337;BME280;22846;42.654;23.314;2023-05-22T07:53:13;94291.34;;;24.81;55.50
31337;BME280;22846;42.654;23.314;2023-05-22T07:55:40;94301.06;;;24.82;55.72
31337;BME280;22846;42.654;23.314;2023-05-22T07:58:06;94294.63;;;24.76;55.76
31337;BME280;22846;42.654;23.314;2023-05-22T08:00:32;94302.72;;;24.79;55.33
31337;BME280;22846;42.654;23.314;2023-05-22T08:02:58;94299.84;;;24.83;55.46
31337;BME280;22846;42.654;23.314;2023-05-22T08:05:23;94297.25;;;24.79;55.23
31337;BME280;22846;42.654;23.314;2023-05-22T08:07:49;94296.78;;;24.81;55.69
31337;BME280;22846;42.654;23.314;2023-05-22T08:10:15;94304.88;;;24.84;55.23
31337;BME280;22846;42.654;23.314;2023-05-22T08:12:41;94300.91;;;24.85;55.22
31337;BME280;22846;42.654;23.314;2023-05-22T08:15:07;94295.91;;;24.84;55.64
31337;BME280;22846;42.654;23.314;2023-05-22T08:17:33;94298.94;;;24.86;55.45
31337;BME280;22846;42.654;23.314;2023-05-22T08:19:58;94295.47;;;24.85;55.49
31337;BME280;22846;42.654;23.314;2023-05-22T08:22:23;94297.72;;;24.87;55.14
31337;BME280;22846;42.654;23.314;2023-05-22T08:24:49;94296.53;;;24.88;55.59
31337;BME280;22846;42.654;23.314;2023-05-22T08:27:15;94295.78;;;24.87;55.09
31337;BME280;22846;42.654;23.314;2023-05-22T08:29:40;94286.38;;;24.88;55.28
31337;BME280;22846;42.654;23.314;2023-05-22T08:32:06;94298.06;;;24.89;55.53
31337;BME280;22846;42.654;23.314;2023-05-22T08:34:31;94295.31;;;24.89;55.21
31337;BME280;22846;42.654;23.314;2023-05-22T08:36:57;94294.13;;;24.90;55.31
31337;BME280;22846;42.654;23.314;2023-05-22T08:39:23;94294.13;;;24.90;55.38
31337;BME280;22846;42.654;23.314;2023-05-22T08:41:49;94297.59;;;24.90;55.42
31337;BME280;22846;42.654;23.314;2023-05-22T08:44:15;94288.78;;;24.86;55.14
31337;BME280;22846;42.654;23.314;2023-05-22T08:46:41;94293.66;;;24.91;55.33
31337;BME280;22846;42.654;23.314;2023-05-22T08:49:09;94288.97;;;24.92;55.16
31337;BME280;22846;42.654;23.314;2023-05-22T08:51:41;94290.47;;;24.93;55.10
31337;BME280;22846;42.654;23.314;2023-05-22T08:54:07;94287.72;;;24.93;54.80
31337;BME280;22846;42.654;23.314;2023-05-22T08:56:34;94286.22;;;24.92;54.92
31337;BME280;22846;42.654;23.314;2023-05-22T08:59:00;94295.94;;;24.93;55.14
31337;BME280;22846;42.654;23.314;2023-05-22T09:01:30;94290.47;;;24.93;54.83
31337;BME280;22846;42.654;23.314;2023-05-22T09:04:00;94283.03;;;24.93;54.90
31337;BME280;22846;42.654;23.314;2023-05-22T09:06:27;94286.09;;;24.95;55.18
31337;BME280;22846;42.654;23.314;2023-05-22T09:08:57;94285.78;;;24.93;55.05
31337;BME280;22846;42.654;23.314;2023-05-22T09:11:23;94280.63;;;24.95;54.95
31337;BME280;22846;42.654;23.314;2023-05-22T09:13:50;94277.13;;;24.95;55.17
31337;BME280;22846;42.654;23.314;2023-05-22T09:16:17;94286.84;;;24.96;54.94
31337;BME280;22846;42.654;23.314;2023-05-22T09:18:42;94279.41;;;24.96;54.86
31337;BME280;22846;42.654;23.314;2023-05-22T09:21:09;94274.69;;;24.97;55.20
31337;BME280;22846;42.654;23.314;2023-05-22T09:23:35;94271.97;;;24.97;54.85
31337;BME280;22846;42.654;23.314;2023-05-22T09:26:01;94271.66;;;24.95;54.65
31337;BME280;22846;42.654;23.314;2023-05-22T09:28:34;94275.91;;;24.96;54.91
31337;BME280;22846;42.654;23.314;2023-05-22T09:31:01;94280.50;;;24.99;54.72
31337;BME280;22846;42.654;23.314;2023-05-22T09:33:28;94276.97;;;24.98;54.68
31337;BME280;22846;42.654;23.314;2023-05-22T09:35:54;94275.03;;;24.99;54.90
31337;BME280;22846;42.654;23.314;2023-05-22T09:38:21;94276.22;;;24.98;54.99
31337;BME280;22846;42.654;23.314;2023-05-22T09:40:52;94281.69;;;24.98;54.69
31337;BME280;22846;42.654;23.314;2023-05-22T09:43:20;94288.69;;;24.99;54.90
31337;BME280;22846;42.654;23.314;2023-05-22T09:45:46;94278.97;;;24.98;55.26
31337;BME280;22846;42.654;23.314;2023-05-22T09:48:15;94279.72;;;24.98;54.79
31337;BME280;22846;42.654;23.314;2023-05-22T09:50:49;94287.91;;;24.98;54.98
31337;BME280;22846;42.654;23.314;2023-05-22T09:53:15;94287.78;;;25.02;54.62
31337;BME280;22846;42.654;23.314;2023-05-22T09:55:40;94277.44;;;24.97;54.65
31337;BME280;22846;42.654;23.314;2023-05-22T09:58:08;94291.84;;;24.97;55.00
31337;BME280;22846;42.654;23.314;2023-05-22T10:00:36;94284.88;;;24.96;54.97
31337;BME280;22846;42.654;23.314;2023-05-22T10:03:09;94292.00;;;24.94;55.01
31337;BME280;22846;42.654;23.314;2023-05-22T10:05:44;94289.25;;;24.94;54.59
31337;BME280;22846;42.654;23.314;2023-05-22T10:08:16;94293.97;;;24.93;54.81
31337;BME280;22846;42.654;23.314;2023-05-22T10:10:47;94295.19;;;24.92;55.18
31337;BME280;22846;42.654;23.314;2023-05-22T10:13:14;94282.25;;;24.93;54.79
31337;BME280;22846;42.654;23.314;2023-05-22T10:15:40;94287.72;;;24.93;54.63
31337;BME280;22846;42.654;23.314;2023-05-22T10:18:05;94293.97;;;24.93;54.87
31337;BME280;22846;42.654;23.314;2023-05-22T10:20:31;94292.00;;;24.94;54.69
31337;BME280;22846;42.654;23.314;2023-05-22T10:22:58;94290.47;;;24.93;54.81
31337;BME280;22846;42.654;23.314;2023-05-22T10:25:23;94288.97;;;24.92;54.76
31337;BME280;22846;42.654;23.314;2023-05-22T10:27:51;94288.97;;;24.92;54.79
31337;BME280;22846;42.654;23.314;2023-05-22T10:32:58;94297.16;;;24.92;54.93
31337;BME280;22846;42.654;23.314;2023-05-22T10:35:35;94295.63;;;24.91;54.83
31337;BME280;22846;42.654;23.314;2023-05-22T10:40:53;94320.25;;;24.91;54.71
31337;BME280;22846;42.654;23.314;2023-05-22T10:43:20;94332.06;;;24.88;54.65
31337;BME280;22846;42.654;23.314;2023-05-22T10:45:46;94315.66;;;24.88;54.55
31337;BME280;22846;42.654;23.314;2023-05-22T10:48:12;94320.66;;;24.89;54.53
31337;BME280;22846;42.654;23.314;2023-05-22T10:50:38;94310.97;;;24.88;54.78
31337;BME280;22846;42.654;23.314;2023-05-22T10:53:23;94312.94;;;24.88;54.62
31337;BME280;22846;42.654;23.314;2023-05-22T10:55:56;94299.84;;;24.83;54.67
31337;BME280;22846;42.654;23.314;2023-05-22T10:58:25;94308.53;;;24.90;54.27
31337;BME280;22846;42.654;23.314;2023-05-22T11:01:12;94296.22;;;24.86;54.55
31337;BME280;22846;42.654;23.314;2023-05-22T11:04:26;94303.19;;;24.87;54.52
31337;BME280;22846;42.654;23.314;2023-05-22T11:06:46;94311.41;;;24.87;54.72
31337;BME280;22846;42.654;23.314;2023-05-22T11:12:23;94298.19;;;24.85;54.76
31337;BME280;22846;42.654;23.314;2023-05-22T11:15:05;94288.47;;;24.84;54.87
31337;BME280;22846;42.654;23.314;2023-05-22T11:17:33;94276.88;;;24.80;54.71
31337;BME280;22846;42.654;23.314;2023-05-22T11:20:03;94283.00;;;24.84;54.69
31337;BME280;22846;42.654;23.314;2023-05-22T11:22:37;94285.72;;;24.84;54.75
31337;BME280;22846;42.654;23.314;2023-05-22T11:25:14;94277.53;;;24.84;55.06
31337;BME280;22846;42.654;23.314;2023-05-22T11:27:40;94284.19;;;24.83;54.60
31337;BME280;22846;42.654;23.314;2023-05-22T11:30:14;94291.66;;;24.83;55.05
31337;BME280;22846;42.654;23.314;2023-05-22T11:32:41;94320.19;;;24.82;54.82
31337;BME280;22846;42.654;23.314;2023-05-22T11:35:13;94324.13;;;24.81;55.00
31337;BME280;22846;42.654;23.314;2023-05-22T11:37:39;94346.75;;;24.81;55.44
31337;BME280;22846;42.654;23.314;2023-05-22T11:40:05;94338.53;;;24.81;55.08
31337;BME280;22846;42.654;23.314;2023-05-22T11:42:32;94343.72;;;24.79;55.37
31337;BME280;22846;42.654;23.314;2023-05-22T11:44:58;94337.47;;;24.79;55.20
31337;BME280;22846;42.654;23.314;2023-05-22T11:47:24;94344.94;;;24.78;55.36
31337;BME280;22846;42.654;23.314;2023-05-22T11:49:50;94356.28;;;24.77;54.78
31337;BME280;22846;42.654;23.314;2023-05-22T11:52:17;94353.53;;;24.77;55.22
31337;BME280;22846;42.654;23.314;2023-05-22T11:54:46;94357.50;;;24.76;55.10
31337;BME280;22846;42.654;23.314;2023-05-22T11:57:12;94352.03;;;24.76;54.90
31337;BME280;22846;42.654;23.314;2023-05-22T11:59:38;94344.28;;;24.75;54.95
31337;BME280;22846;42.654;23.314;2023-05-22T12:02:06;94342.31;;;24.75;55.39
31337;BME280;22846;42.654;23.314;2023-05-22T12:04:32;94343.81;;;24.76;55.37
31337;BME280;22846;42.654;23.314;2023-05-22T12:06:57;94351.28;;;24.76;55.21
31337;BME280;22846;42.654;23.314;2023-05-22T12:09:25;94340.78;;;24.74;54.90
31337;BME280;22846;42.654;23.314;2023-05-22T12:11:54;94339.59;;;24.75;54.88
31337;BME280;22846;42.654;23.314;2023-05-22T12:14:26;94342.00;;;24.73;55.26
31337;BME280;22846;42.654;23.314;2023-05-22T12:16:52;94344.28;;;24.75;55.29
31337;BME280;22846;42.654;23.314;2023-05-22T12:19:19;94340.47;;;24.72;54.99
31337;BME280;22846;42.654;23.314;2023-05-22T12:21:48;94334.22;;;24.72;55.02
31337;BME280;22846;42.654;23.314;2023-05-22T12:24:14;94333.81;;;24.73;55.21
31337;BME280;22846;42.654;23.314;2023-05-22T12:26:39;94321.47;;;24.69;55.25
31337;BME280;22846;42.654;23.314;2023-05-22T12:29:05;94328.75;;;24.72;55.06
31337;BME280;22846;42.654;23.314;2023-05-22T12:31:34;94327.25;;;24.71;55.17
31337;BME280;22846;42.654;23.314;2023-05-22T12:34:03;94316.34;;;24.71;55.12
31337;BME280;22846;42.654;23.314;2023-05-22T12:36:47;94312.81;;;24.70;55.06
31337;BME280;22846;42.654;23.314;2023-05-22T12:39:17;94313.59;;;24.71;54.98
31337;BME280;22846;42.654;23.314;2023-05-22T12:41:43;94310.88;;;24.71;54.72
31337;BME280;22846;42.654;23.314;2023-05-22T12:44:09;94311.63;;;24.71;54.97
31337;BME280;22846;42.654;23.314;2023-05-22T12:46:34;94306.91;;;24.72;54.84
31337;BME280;22846;42.654;23.314;2023-05-22T12:49:00;94308.88;;;24.71;55.00
31337;BME280;22846;42.654;23.314;2023-05-22T12:51:30;94313.59;;;24.71;54.64
31337;BME280;22846;42.654;23.314;2023-05-22T12:53:59;94306.16;;;24.71;54.60
31337;BME280;22846;42.654;23.314;2023-05-22T12:56:26;94302.78;;;24.67;54.81
31337;BME280;22846;42.654;23.314;2023-05-22T12:58:51;94308.88;;;24.71;54.82
31337;BME280;22846;42.654;23.314;2023-05-22T13:01:17;94308.56;;;24.69;54.71
31337;BME280;22846;42.654;23.314;2023-05-22T13:03:43;94306.91;;;24.72;54.67
31337;BME280;22846;42.654;23.314;2023-05-22T13:06:08;94307.69;;;24.72;54.52